sensor_id;sensor_type;location;lat;lon;timestamp;pressure;altitude;pressure_sealevel;temperature;humidity
71567;BME280;59403;47.456;19.120;2023-05-25T00:02:22;100415.50;;;17.66;100.00
71567;BME280;59403;47.456;19.120;2023-05-25T00:04:51;100414.06;;;17.70;100.00
71567;BME280;59403;47.456;19.120;2023-05-25T00:07:18;100420.22;;;17.71;100.00
71567;BME280;59403;47.456;19.120;2023-05-25T00:09:45;100421.69;;;17.67;100.00
71567;BME280;59403;47.456;19.120;2023-05-25T00:12:12;100412.38;;;17.63;100.00
71567;BME280;59403;47.456;19.120;2023-05-25T00:14:40;100435.66;;;17.62;100.00
71567;BME280;59403;47.456;19.120;2023-05-25T00:17:07;100421.84;;;17.59;100.00
71567;BME280;59403;47.456;19.120;2023-05-25T00:19:37;100421.84;;;17.59;100.00
71567;BME280;59403;47.456;19.120;2023-05-25T00:22:06;100419.56;;;17.56;100.00
71567;BME280;59403;47.456;19.120;2023-05-25T00:24:33;100434.81;;;17.62;100.00
71567;BME280;59403;47.456;19.120;2023-05-25T00:27:00;100439.81;;;17.65;100.00
71567;BME280;59403;47.456;19.120;2023-05-25T00:29:28;100428.88;;;17.66;100.00
71567;BME280;59403;47.456;19.120;2023-05-25T00:31:55;100424.75;;;17.64;100.00
71567;BME280;59403;47.456;19.120;2023-05-25T00:34:22;100423.53;;;17.66;100.00
71567;BME280;59403;47.456;19.120;2023-05-25T00:36:50;100431.13;;;17.63;100.00
71567;BME280;59403;47.456;19.120;2023-05-25T00:39:18;100438.97;;;17.64;100.00
71567;BME280;59403;47.456;19.120;2023-05-25T00:41:46;100433.75;;;17.50;100.00
71567;BME280;59403;47.456;19.120;2023-05-25T00:44:14;100439.94;;;17.50;100.00
71567;BME280;59403;47.456;19.120;2023-05-25T00:46:48;100428.22;;;17.51;100.00
71567;BME280;59403;47.456;19.120;2023-05-25T00:49:17;100437.91;;;17.52;100.00
71567;BME280;59403;47.456;19.120;2023-05-25T00:51:46;100440.72;;;17.44;100.00
71567;BME280;59403;47.456;19.120;2023-05-25T00:54:14;100440.37;;;17.54;100.00
71567;BME280;59403;47.456;19.120;2023-05-25T00:56:45;100440.16;;;17.49;100.00
71567;BME280;59403;47.456;19.120;2023-05-25T00:59:16;100446.34;;;17.49;100.00
71567;BME280;59403;47.456;19.120;2023-05-25T01:04:44;100445.09;;;17.52;100.00
71567;BME280;59403;47.456;19.120;2023-05-25T01:07:17;100449.75;;;17.43;100.00
71567;BME280;59403;47.456;19.120;2023-05-25T01:09:47;100450.78;;;17.36;100.00
71567;BME280;59403;47.456;19.120;2023-05-25T01:12:18;100457.56;;;17.32;100.00
71567;BME280;59403;47.456;19.120;2023-05-25T01:14:46;100449.72;;;17.30;100.00
71567;BME280;59403;47.456;19.120;2023-05-25T01:17:13;100448.91;;;17.36;100.00
71567;BME280;59403;47.456;19.120;2023-05-25T01:19:42;100447.50;;;17.40;100.00
71567;BME280;59403;47.456;19.120;2023-05-25T01:22:17;100442.56;;;17.44;100.00
71567;BME280;59403;47.456;19.120;2023-05-25T01:24:48;100445.03;;;17.39;100.00
71567;BME280;59403;47.456;19.120;2023-05-25T01:27:22;100459.84;;;17.41;100.00
71567;BME280;59403;47.456;19.120;2023-05-25T01:29:50;100455.31;;;17.42;100.00
71567;BME280;59403;47.456;19.120;2023-05-25T01:32:19;100458.81;;;17.36;100.00
71567;BME280;59403;47.456;19.120;2023-05-25T01:34:47;100458.75;;;17.29;100.00
71567;BME280;59403;47.456;19.120;2023-05-25T01:37:17;100463.84;;;17.18;100.00
71567;BME280;59403;47.456;19.120;2023-05-25T01:39:47;100466.94;;;17.15;100.00
71567;BME280;59403;47.456;19.120;2023-05-25T01:42:16;100463.00;;;17.11;100.00
71567;BME280;59403;47.456;19.120;2023-05-25T01:44:43;100456.53;;;16.98;100.00
71567;BME280;59403;47.456;19.120;2023-05-25T01:47:21;100460.00;;;16.92;100.00
71567;BME280;59403;47.456;19.120;2023-05-25T01:49:56;100464.53;;;16.92;100.00
71567;BME280;59403;47.456;19.120;2023-05-25T01:52:30;100465.41;;;16.99;100.00
71567;BME280;59403;47.456;19.120;2023-05-25T01:55:02;100465.56;;;16.97;100.00
71567;BME280;59403;47.456;19.120;2023-05-25T01:57:35;100463.31;;;16.94;100.00
71567;BME280;59403;47.456;19.120;2023-05-25T02:00:04;100469.88;;;16.92;100.00
71567;BME280;59403;47.456;19.120;2023-05-25T02:02:32;100462.19;;;16.82;100.00
71567;BME280;59403;47.456;19.120;2023-05-25T02:05:00;100463.22;;;16.81;100.00
71567;BME280;59403;47.456;19.120;2023-05-25T02:07:29;100465.59;;;16.70;100.00
71567;BME280;59403;47.456;19.120;2023-05-25T02:09:56;100466.00;;;16.67;100.00
71567;BME280;59403;47.456;19.120;2023-05-25T02:12:23;100455.28;;;16.67;100.00
71567;BME280;59403;47.456;19.120;2023-05-25T02:14:49;100466.38;;;16.64;100.00
71567;BME280;59403;47.456;19.120;2023-05-25T02:17:16;100468.22;;;16.63;100.00
71567;BME280;59403;47.456;19.120;2023-05-25T02:19:44;100465.13;;;16.60;100.00
71567;BME280;59403;47.456;19.120;2023-05-25T02:22:12;100468.38;;;16.55;100.00
71567;BME280;59403;47.456;19.120;2023-05-25T02:24:40;100467.69;;;16.47;100.00
71567;BME280;59403;47.456;19.120;2023-05-25T02:27:07;100473.22;;;16.45;100.00
71567;BME280;59403;47.456;19.120;2023-05-25T02:29:37;100471.09;;;16.41;100.00
71567;BME280;59403;47.456;19.120;2023-05-25T02:32:04;100477.66;;;16.38;100.00
71567;BME280;59403;47.456;19.120;2023-05-25T02:34:32;100475.94;;;16.31;100.00
71567;BME280;59403;47.456;19.120;2023-05-25T02:36:59;100468.13;;;16.29;100.00
71567;BME280;59403;47.456;19.120;2023-05-25T02:39:27;100469.06;;;16.22;100.00
71567;BME280;59403;47.456;19.120;2023-05-25T02:41:55;100476.25;;;16.21;100.00
71567;BME280;59403;47.456;19.120;2023-05-25T02:44:22;100478.31;;;16.19;100.00
71567;BME280;59403;47.456;19.120;2023-05-25T02:46:49;100477.03;;;16.15;100.00
71567;BME280;59403;47.456;19.120;2023-05-25T02:49:16;100475.19;;;16.16;100.00
71567;BME280;59403;47.456;19.120;2023-05-25T02:51:43;100479.91;;;16.14;100.00
71567;BME280;59403;47.456;19.120;2023-05-25T02:54:09;100482.13;;;16.10;100.00
71567;BME280;59403;47.456;19.120;2023-05-25T02:56:36;100484.59;;;16.12;100.00
71567;BME280;59403;47.456;19.120;2023-05-25T02:59:04;100481.16;;;16.18;100.00
71567;BME280;59403;47.456;19.120;2023-05-25T03:01:32;100480.97;;;16.19;100.00
71567;BME280;59403;47.456;19.120;2023-05-25T03:03:59;100492.94;;;16.23;100.00
71567;BME280;59403;47.456;19.120;2023-05-25T03:06:26;100487.53;;;16.17;100.00
71567;BME280;59403;47.456;19.120;2023-05-25T03:08:52;100489.34;;;16.16;100.00
71567;BME280;59403;47.456;19.120;2023-05-25T03:11:19;100494.50;;;16.18;100.00
71567;BME280;59403;47.456;19.120;2023-05-25T03:13:47;100493.72;;;16.17;100.00
71567;BME280;59403;47.456;19.120;2023-05-25T03:16:15;100495.28;;;16.12;100.00
71567;BME280;59403;47.456;19.120;2023-05-25T03:18:42;100495.47;;;16.10;100.00
71567;BME280;59403;47.456;19.120;2023-05-25T03:21:09;100498.09;;;16.04;100.00
71567;BME280;59403;47.456;19.120;2023-05-25T03:23:35;100509.13;;;16.01;100.00
71567;BME280;59403;47.456;19.120;2023-05-25T03:26:02;100509.13;;;16.01;100.00
71567;BME280;59403;47.456;19.120;2023-05-25T03:28:29;100507.56;;;16.06;100.00
71567;BME280;59403;47.456;19.120;2023-05-25T03:30:56;100512.25;;;16.04;100.00
71567;BME280;59403;47.456;19.120;2023-05-25T03:33:24;100508.59;;;16.05;100.00
71567;BME280;59403;47.456;19.120;2023-05-25T03:35:51;100509.38;;;16.06;100.00
71567;BME280;59403;47.456;19.120;2023-05-25T03:38:18;100502.22;;;16.06;100.00
71567;BME280;59403;47.456;19.120;2023-05-25T03:40:45;100503.69;;;16.09;100.00
71567;BME280;59403;47.456;19.120;2023-05-25T03:43:12;100514.00;;;16.12;100.00
71567;BME280;59403;47.456;19.120;2023-05-25T03:45:39;100511.97;;;16.14;100.00
71567;BME280;59403;47.456;19.120;2023-05-25T03:48:06;100511.13;;;16.13;100.00
71567;BME280;59403;47.456;19.120;2023-05-25T03:50:34;100509.09;;;16.15;100.00
71567;BME280;59403;47.456;19.120;2023-05-25T03:53:00;100510.38;;;16.19;100.00
71567;BME280;59403;47.456;19.120;2023-05-25T03:55:27;100506.03;;;16.18;100.00
71567;BME280;59403;47.456;19.120;2023-05-25T03:57:55;100513.09;;;16.26;100.00
71567;BME280;59403;47.456;19.120;2023-05-25T04:00:22;100524.81;;;16.25;100.00
71567;BME280;59403;47.456;19.120;2023-05-25T04:02:49;100523.59;;;16.27;100.00
71567;BME280;59403;47.456;19.120;2023-05-25T04:05:15;100521.56;;;16.29;100.00
71567;BME280;59403;47.456;19.120;2023-05-25T04:07:45;100528.75;;;16.29;100.00
71567;BME280;59403;47.456;19.120;2023-05-25T04:10:12;100531.87;;;16.32;100.00
71567;BME280;59403;47.456;19.120;2023-05-25T04:12:39;100530.03;;;16.33;100.00
71567;BME280;59403;47.456;19.120;2023-05-25T04:15:06;100530.50;;;16.36;100.00
71567;BME280;59403;47.456;19.120;2023-05-25T04:17:34;100536.94;;;16.42;100.00
71567;BME280;59403;47.456;19.120;2023-05-25T04:20:00;100543.00;;;16.50;100.00
71567;BME280;59403;47.456;19.120;2023-05-25T04:22:28;100543.53;;;16.67;100.00
71567;BME280;59403;47.456;19.120;2023-05-25T04:24:56;100541.00;;;16.80;100.00
71567;BME280;59403;47.456;19.120;2023-05-25T04:27:23;100550.47;;;16.82;100.00
71567;BME280;59403;47.456;19.120;2023-05-25T04:29:50;100547.69;;;16.90;100.00
71567;BME280;59403;47.456;19.120;2023-05-25T04:32:18;100552.03;;;16.98;100.00
71567;BME280;59403;47.456;19.120;2023-05-25T04:34:45;100549.16;;;16.99;100.00
71567;BME280;59403;47.456;19.120;2023-05-25T04:37:13;100547.56;;;17.05;100.00
71567;BME280;59403;47.456;19.120;2023-05-25T04:39:39;100552.91;;;17.05;100.00
71567;BME280;59403;47.456;19.120;2023-05-25T04:42:08;100544.56;;;17.15;100.00
71567;BME280;59403;47.456;19.120;2023-05-25T04:44:35;100553.38;;;17.15;100.00
71567;BME280;59403;47.456;19.120;2023-05-25T04:47:02;100551.66;;;17.29;100.00
71567;BME280;59403;47.456;19.120;2023-05-25T04:49:29;100547.62;;;17.80;100.00
71567;BME280;59403;47.456;19.120;2023-05-25T04:51:56;100546.22;;;17.90;100.00
71567;BME280;59403;47.456;19.120;2023-05-25T04:54:22;100549.75;;;17.91;100.00
71567;BME280;59403;47.456;19.120;2023-05-25T04:56:49;100546.78;;;17.79;100.00
71567;BME280;59403;47.456;19.120;2023-05-25T04:59:18;100548.59;;;17.72;100.00
71567;BME280;59403;47.456;19.120;2023-05-25T05:01:45;100551.25;;;17.66;100.00
71567;BME280;59403;47.456;19.120;2023-05-25T05:04:12;100553.69;;;17.54;100.00
71567;BME280;59403;47.456;19.120;2023-05-25T05:06:40;100557.44;;;17.60;100.00
71567;BME280;59403;47.456;19.120;2023-05-25T05:09:07;100551.25;;;17.59;100.00
71567;BME280;59403;47.456;19.120;2023-05-25T05:11:34;100559.69;;;17.63;100.00
71567;BME280;59403;47.456;19.120;2023-05-25T05:14:01;100556.59;;;17.59;100.00
71567;BME280;59403;47.456;19.120;2023-05-25T05:16:30;100561.41;;;17.70;100.00
71567;BME280;59403;47.456;19.120;2023-05-25T05:18:59;100565.94;;;17.76;100.00
71567;BME280;59403;47.456;19.120;2023-05-25T05:21:26;100561.88;;;17.87;100.00
71567;BME280;59403;47.456;19.120;2023-05-25T05:23:53;100564.97;;;17.84;100.00
71567;BME280;59403;47.456;19.120;2023-05-25T05:26:21;100560.81;;;17.81;100.00
71567;BME280;59403;47.456;19.120;2023-05-25T05:28:48;100555.09;;;17.91;100.00
71567;BME280;59403;47.456;19.120;2023-05-25T05:31:17;100563.34;;;17.96;100.00
71567;BME280;59403;47.456;19.120;2023-05-25T05:33:45;100567.47;;;17.98;100.00
71567;BME280;59403;47.456;19.120;2023-05-25T05:36:12;100568.31;;;18.05;100.00
71567;BME280;59403;47.456;19.120;2023-05-25T05:38:39;100573.13;;;18.17;100.00
71567;BME280;59403;47.456;19.120;2023-05-25T05:41:06;100567.75;;;18.23;100.00
71567;BME280;59403;47.456;19.120;2023-05-25T05:43:38;100566.72;;;18.17;100.00
71567;BME280;59403;47.456;19.120;2023-05-25T05:46:07;100558.66;;;18.17;100.00
71567;BME280;59403;47.456;19.120;2023-05-25T05:48:34;100566.34;;;18.27;99.97
71567;BME280;59403;47.456;19.120;2023-05-25T05:51:02;100569.47;;;18.37;100.00
71567;BME280;59403;47.456;19.120;2023-05-25T05:53:29;100572.37;;;18.49;99.50
71567;BME280;59403;47.456;19.120;2023-05-25T05:55:56;100572.00;;;18.58;98.99
71567;BME280;59403;47.456;19.120;2023-05-25T05:58:25;100575.53;;;18.65;98.16
71567;BME280;59403;47.456;19.120;2023-05-25T06:00:53;100579.66;;;18.74;97.42
71567;BME280;59403;47.456;19.120;2023-05-25T06:03:21;100581.12;;;18.83;96.48
71567;BME280;59403;47.456;19.120;2023-05-25T06:05:48;100582.34;;;18.87;96.70
71567;BME280;59403;47.456;19.120;2023-05-25T06:08:17;100582.78;;;19.04;96.62
71567;BME280;59403;47.456;19.120;2023-05-25T06:10:44;100587.28;;;19.16;96.63
71567;BME280;59403;47.456;19.120;2023-05-25T06:13:10;100591.84;;;19.22;96.59
71567;BME280;59403;47.456;19.120;2023-05-25T06:15:37;100585.47;;;19.37;96.13
71567;BME280;59403;47.456;19.120;2023-05-25T06:18:05;100582.38;;;19.33;93.50
71567;BME280;59403;47.456;19.120;2023-05-25T06:20:32;100586.09;;;19.39;94.72
71567;BME280;59403;47.456;19.120;2023-05-25T06:22:59;100585.81;;;19.53;93.34
71567;BME280;59403;47.456;19.120;2023-05-25T06:25:28;100584.94;;;19.79;92.34
71567;BME280;59403;47.456;19.120;2023-05-25T06:27:55;100581.66;;;19.77;90.62
71567;BME280;59403;47.456;19.120;2023-05-25T06:30:22;100582.59;;;19.95;91.02
71567;BME280;59403;47.456;19.120;2023-05-25T06:32:49;100582.63;;;19.89;87.07
71567;BME280;59403;47.456;19.120;2023-05-25T06:35:16;100588.00;;;19.89;87.86
71567;BME280;59403;47.456;19.120;2023-05-25T06:37:45;100583.56;;;20.20;87.95
71567;BME280;59403;47.456;19.120;2023-05-25T06:40:13;100580.41;;;20.30;88.03
71567;BME280;59403;47.456;19.120;2023-05-25T06:42:41;100584.62;;;20.51;87.35
71567;BME280;59403;47.456;19.120;2023-05-25T06:45:09;100582.41;;;20.72;86.49
71567;BME280;59403;47.456;19.120;2023-05-25T06:47:36;100589.44;;;20.73;85.62
71567;BME280;59403;47.456;19.120;2023-05-25T06:50:04;100580.22;;;20.87;86.22
71567;BME280;59403;47.456;19.120;2023-05-25T06:52:31;100587.97;;;21.08;83.53
71567;BME280;59403;47.456;19.120;2023-05-25T06:54:58;100589.78;;;20.83;83.72
71567;BME280;59403;47.456;19.120;2023-05-25T06:57:25;100594.59;;;20.50;86.84
71567;BME280;59403;47.456;19.120;2023-05-25T06:59:53;100585.56;;;20.94;83.72
71567;BME280;59403;47.456;19.120;2023-05-25T07:02:20;100589.16;;;21.12;82.37
71567;BME280;59403;47.456;19.120;2023-05-25T07:04:47;100589.72;;;20.65;81.57
71567;BME280;59403;47.456;19.120;2023-05-25T07:07:14;100590.53;;;20.66;85.45
71567;BME280;59403;47.456;19.120;2023-05-25T07:09:41;100600.50;;;21.39;80.50
71567;BME280;59403;47.456;19.120;2023-05-25T07:12:08;100602.25;;;21.52;79.25
71567;BME280;59403;47.456;19.120;2023-05-25T07:14:35;100599.00;;;22.04;78.51
71567;BME280;59403;47.456;19.120;2023-05-25T07:17:04;100594.53;;;21.98;79.24
71567;BME280;59403;47.456;19.120;2023-05-25T07:19:31;100603.13;;;21.27;79.76
71567;BME280;59403;47.456;19.120;2023-05-25T07:21:58;100604.94;;;21.09;82.06
71567;BME280;59403;47.456;19.120;2023-05-25T07:24:25;100601.88;;;21.30;81.10
71567;BME280;59403;47.456;19.120;2023-05-25T07:26:52;100601.59;;;21.13;79.02
71567;BME280;59403;47.456;19.120;2023-05-25T07:29:19;100607.69;;;21.88;78.04
71567;BME280;59403;47.456;19.120;2023-05-25T07:31:46;100598.25;;;21.97;74.76
71567;BME280;59403;47.456;19.120;2023-05-25T07:34:14;100599.97;;;21.73;77.62
71567;BME280;59403;47.456;19.120;2023-05-25T07:36:41;100592.75;;;22.39;74.93
71567;BME280;59403;47.456;19.120;2023-05-25T07:39:08;100597.69;;;22.72;72.16
71567;BME280;59403;47.456;19.120;2023-05-25T07:41:35;100595.66;;;22.68;72.49
71567;BME280;59403;47.456;19.120;2023-05-25T07:44:02;100594.88;;;22.90;72.16
71567;BME280;59403;47.456;19.120;2023-05-25T07:46:30;100594.38;;;22.70;73.97
71567;BME280;59403;47.456;19.120;2023-05-25T07:48:57;100597.22;;;23.39;70.98
71567;BME280;59403;47.456;19.120;2023-05-25T07:51:28;100598.34;;;23.09;71.00
71567;BME280;59403;47.456;19.120;2023-05-25T07:53:57;100597.44;;;23.38;70.04
71567;BME280;59403;47.456;19.120;2023-05-25T07:56:24;100608.03;;;23.39;68.95
71567;BME280;59403;47.456;19.120;2023-05-25T07:58:51;100603.63;;;22.63;68.74
71567;BME280;59403;47.456;19.120;2023-05-25T08:01:18;100604.09;;;22.12;72.98
71567;BME280;59403;47.456;19.120;2023-05-25T08:03:44;100607.84;;;22.29;68.83
71567;BME280;59403;47.456;19.120;2023-05-25T08:06:11;100602.13;;;23.19;67.99
71567;BME280;59403;47.456;19.120;2023-05-25T08:08:40;100602.72;;;23.44;67.88
71567;BME280;59403;47.456;19.120;2023-05-25T08:11:09;100599.22;;;22.80;68.88
71567;BME280;59403;47.456;19.120;2023-05-25T08:13:36;100602.56;;;22.34;71.22
71567;BME280;59403;47.456;19.120;2023-05-25T08:16:03;100603.88;;;22.61;70.27
71567;BME280;59403;47.456;19.120;2023-05-25T08:18:30;100607.53;;;22.67;69.91
71567;BME280;59403;47.456;19.120;2023-05-25T08:20:57;100605.97;;;23.12;67.49
71567;BME280;59403;47.456;19.120;2023-05-25T08:23:25;100603.16;;;23.07;65.93
71567;BME280;59403;47.456;19.120;2023-05-25T08:25:54;100611.06;;;22.67;66.37
71567;BME280;59403;47.456;19.120;2023-05-25T08:28:21;100600.38;;;22.72;67.00
71567;BME280;59403;47.456;19.120;2023-05-25T08:30:48;100610.28;;;22.90;67.16
71567;BME280;59403;47.456;19.120;2023-05-25T08:33:14;100614.13;;;23.58;65.41
71567;BME280;59403;47.456;19.120;2023-05-25T08:35:42;100614.78;;;24.00;63.72
71567;BME280;59403;47.456;19.120;2023-05-25T08:38:09;100606.03;;;24.21;60.94
71567;BME280;59403;47.456;19.120;2023-05-25T08:40:37;100605.88;;;23.76;59.89
71567;BME280;59403;47.456;19.120;2023-05-25T08:43:08;100606.97;;;23.75;61.87
71567;BME280;59403;47.456;19.120;2023-05-25T08:45:35;100602.25;;;23.47;63.81
71567;BME280;59403;47.456;19.120;2023-05-25T08:48:04;100609.47;;;24.16;62.80
71567;BME280;59403;47.456;19.120;2023-05-25T08:50:33;100609.28;;;23.83;64.31
71567;BME280;59403;47.456;19.120;2023-05-25T08:53:02;100614.91;;;24.05;61.47
71567;BME280;59403;47.456;19.120;2023-05-25T08:55:32;100608.72;;;24.32;60.95
71567;BME280;59403;47.456;19.120;2023-05-25T08:58:06;100612.22;;;24.33;60.33
71567;BME280;59403;47.456;19.120;2023-05-25T09:00:41;100611.97;;;24.06;61.41
71567;BME280;59403;47.456;19.120;2023-05-25T09:03:12;100604.47;;;23.85;62.06
71567;BME280;59403;47.456;19.120;2023-05-25T09:05:42;100600.91;;;24.08;62.51
71567;BME280;59403;47.456;19.120;2023-05-25T09:08:09;100597.28;;;23.79;62.79
71567;BME280;59403;47.456;19.120;2023-05-25T09:10:37;100602.75;;;23.56;62.08
71567;BME280;59403;47.456;19.120;2023-05-25T09:13:04;100597.09;;;23.34;63.32
71567;BME280;59403;47.456;19.120;2023-05-25T09:15:32;100602.06;;;22.85;65.02
71567;BME280;59403;47.456;19.120;2023-05-25T09:18:01;100600.72;;;23.28;63.98
71567;BME280;59403;47.456;19.120;2023-05-25T09:20:27;100602.25;;;23.47;63.23
71567;BME280;59403;47.456;19.120;2023-05-25T09:22:56;100612.03;;;23.48;63.40
71567;BME280;59403;47.456;19.120;2023-05-25T09:25:24;100601.16;;;23.25;64.33
71567;BME280;59403;47.456;19.120;2023-05-25T09:27:52;100597.28;;;23.21;64.49
71567;BME280;59403;47.456;19.120;2023-05-25T09:30:20;100591.41;;;23.71;63.28
71567;BME280;59403;47.456;19.120;2023-05-25T09:32:47;100607.00;;;24.15;62.81
71567;BME280;59403;47.456;19.120;2023-05-25T09:35:16;100604.22;;;23.87;62.60
71567;BME280;59403;47.456;19.120;2023-05-25T09:37:43;100612.72;;;23.55;64.32
71567;BME280;59403;47.456;19.120;2023-05-25T09:40:12;100609.16;;;23.90;62.92
71567;BME280;59403;47.456;19.120;2023-05-25T09:42:39;100604.97;;;23.59;64.77
71567;BME280;59403;47.456;19.120;2023-05-25T09:45:07;100607.91;;;23.46;64.66
71567;BME280;59403;47.456;19.120;2023-05-25T09:47:35;100608.78;;;23.05;65.48
71567;BME280;59403;47.456;19.120;2023-05-25T09:50:03;100604.00;;;23.07;66.76
71567;BME280;59403;47.456;19.120;2023-05-25T09:52:34;100614.69;;;23.83;62.16
71567;BME280;59403;47.456;19.120;2023-05-25T09:55:08;100612.53;;;24.48;60.41
71567;BME280;59403;47.456;19.120;2023-05-25T09:57:35;100615.81;;;24.50;58.79
71567;BME280;59403;47.456;19.120;2023-05-25T10:00:02;100614.53;;;25.14;58.79
71567;BME280;59403;47.456;19.120;2023-05-25T10:02:30;100613.41;;;24.65;59.79
71567;BME280;59403;47.456;19.120;2023-05-25T10:04:57;100614.56;;;23.90;61.70
71567;BME280;59403;47.456;19.120;2023-05-25T10:07:24;100616.50;;;24.29;62.36
71567;BME280;59403;47.456;19.120;2023-05-25T10:09:54;100614.78;;;24.11;62.73
71567;BME280;59403;47.456;19.120;2023-05-25T10:12:23;100614.00;;;23.99;63.49
71567;BME280;59403;47.456;19.120;2023-05-25T10:14:50;100605.78;;;23.71;65.29
71567;BME280;59403;47.456;19.120;2023-05-25T10:17:21;100605.81;;;23.36;65.55
71567;BME280;59403;47.456;19.120;2023-05-25T10:19:54;100598.47;;;23.60;65.43
71567;BME280;59403;47.456;19.120;2023-05-25T10:22:25;100600.69;;;24.37;64.46
71567;BME280;59403;47.456;19.120;2023-05-25T10:25:03;100606.31;;;24.92;63.58
71567;BME280;59403;47.456;19.120;2023-05-25T10:27:37;100598.75;;;24.78;57.23
71567;BME280;59403;47.456;19.120;2023-05-25T10:30:07;100604.84;;;25.01;57.90
71567;BME280;59403;47.456;19.120;2023-05-25T10:32:36;100594.38;;;25.59;57.98
71567;BME280;59403;47.456;19.120;2023-05-25T10:35:04;100594.00;;;24.56;60.93
71567;BME280;59403;47.456;19.120;2023-05-25T10:37:32;100591.16;;;24.35;62.69
71567;BME280;59403;47.456;19.120;2023-05-25T10:40:01;100598.78;;;24.10;64.19
71567;BME280;59403;47.456;19.120;2023-05-25T10:42:29;100599.87;;;23.74;65.81
71567;BME280;59403;47.456;19.120;2023-05-25T10:44:56;100589.81;;;23.46;64.59
71567;BME280;59403;47.456;19.120;2023-05-25T10:47:24;100588.50;;;23.60;65.43
71567;BME280;59403;47.456;19.120;2023-05-25T10:49:53;100596.81;;;23.71;66.92
71567;BME280;59403;47.456;19.120;2023-05-25T10:52:21;100587.59;;;23.95;65.33
71567;BME280;59403;47.456;19.120;2023-05-25T10:54:54;100584.22;;;24.84;63.04
71567;BME280;59403;47.456;19.120;2023-05-25T10:57:23;100578.91;;;25.38;59.91
71567;BME280;59403;47.456;19.120;2023-05-25T10:59:51;100585.59;;;25.52;58.80
71567;BME280;59403;47.456;19.120;2023-05-25T11:02:20;100578.16;;;25.43;59.34
71567;BME280;59403;47.456;19.120;2023-05-25T11:04:49;100573.38;;;25.17;59.31
71567;BME280;59403;47.456;19.120;2023-05-25T11:07:16;100579.50;;;25.62;58.81
71567;BME280;59403;47.456;19.120;2023-05-25T11:09:55;100572.31;;;25.72;57.71
71567;BME280;59403;47.456;19.120;2023-05-25T11:12:25;100572.28;;;26.11;57.92
71567;BME280;59403;47.456;19.120;2023-05-25T11:15:08;100564.75;;;25.20;58.89
71567;BME280;59403;47.456;19.120;2023-05-25T11:20:28;100561.56;;;24.90;62.21
71567;BME280;59403;47.456;19.120;2023-05-25T11:22:58;100570.25;;;24.47;62.69
71567;BME280;59403;47.456;19.120;2023-05-25T11:25:35;100566.59;;;24.25;63.63
71567;BME280;59403;47.456;19.120;2023-05-25T11:28:06;100563.84;;;23.97;63.79
71567;BME280;59403;47.456;19.120;2023-05-25T11:30:33;100567.97;;;23.88;64.67
71567;BME280;59403;47.456;19.120;2023-05-25T11:33:01;100559.28;;;23.86;63.77
71567;BME280;59403;47.456;19.120;2023-05-25T11:35:29;100556.47;;;23.81;62.21
71567;BME280;59403;47.456;19.120;2023-05-25T11:37:58;100558.28;;;24.15;62.28
71567;BME280;59403;47.456;19.120;2023-05-25T11:40:28;100555.37;;;25.11;60.24
71567;BME280;59403;47.456;19.120;2023-05-25T11:42:56;100543.78;;;25.32;58.08
71567;BME280;59403;47.456;19.120;2023-05-25T11:45:30;100549.44;;;25.30;58.68
71567;BME280;59403;47.456;19.120;2023-05-25T11:47:58;100543.00;;;24.98;60.40
71567;BME280;59403;47.456;19.120;2023-05-25T11:50:24;100547.28;;;24.49;60.30
71567;BME280;59403;47.456;19.120;2023-05-25T11:52:52;100530.56;;;24.24;62.81
71567;BME280;59403;47.456;19.120;2023-05-25T11:57:46;100532.75;;;24.11;61.29
71567;BME280;59403;47.456;19.120;2023-05-25T12:00:24;100527.06;;;25.02;58.29
71567;BME280;59403;47.456;19.120;2023-05-25T12:02:53;100528.72;;;25.57;56.76
71567;BME280;59403;47.456;19.120;2023-05-25T12:05:21;100519.47;;;26.02;56.03
71567;BME280;59403;47.456;19.120;2023-05-25T12:07:48;100511.78;;;26.15;55.18
71567;BME280;59403;47.456;19.120;2023-05-25T12:10:15;100523.72;;;26.14;55.63
71567;BME280;59403;47.456;19.120;2023-05-25T12:12:44;100516.19;;;26.48;55.96
71567;BME280;59403;47.456;19.120;2023-05-25T12:15:12;100514.94;;;26.92;55.84
71567;BME280;59403;47.456;19.120;2023-05-25T12:17:41;100510.63;;;26.96;54.31
71567;BME280;59403;47.456;19.120;2023-05-25T12:20:12;100512.00;;;26.35;52.78
71567;BME280;59403;47.456;19.120;2023-05-25T12:22:40;100506.88;;;27.07;53.32
71567;BME280;59403;47.456;19.120;2023-05-25T12:25:09;100496.81;;;27.03;53.71
71567;BME280;59403;47.456;19.120;2023-05-25T12:27:36;100508.69;;;26.60;53.85
71567;BME280;59403;47.456;19.120;2023-05-25T12:30:06;100509.19;;;26.57;52.49
71567;BME280;59403;47.456;19.120;2023-05-25T12:32:33;100491.22;;;26.77;55.88
71567;BME280;59403;47.456;19.120;2023-05-25T12:35:02;100506.59;;;26.40;55.82
71567;BME280;59403;47.456;19.120;2023-05-25T12:37:31;100504.41;;;26.11;54.94
71567;BME280;59403;47.456;19.120;2023-05-25T12:39:58;100505.66;;;26.03;56.52
71567;BME280;59403;47.456;19.120;2023-05-25T12:42:25;100509.59;;;25.91;56.23
71567;BME280;59403;47.456;19.120;2023-05-25T12:44:55;100508.37;;;25.60;56.29
71567;BME280;59403;47.456;19.120;2023-05-25T12:47:25;100506.00;;;25.42;57.83
71567;BME280;59403;47.456;19.120;2023-05-25T12:50:10;100507.03;;;25.03;57.67